sensor_id;sensor_type;location;lat;lon;timestamp;pressure;altitude;pressure_sealevel;temperature;humidity
4570;BME280;2297;51.442;6.996;2023-11-21T00:00:54;99727.28;;;11.47;55.88
4570;BME280;2297;51.442;6.996;2023-11-21T00:03:21;99726.31;;;11.50;55.49
4570;BME280;2297;51.442;6.996;2023-11-21T00:05:48;99728.13;;;11.47;55.53
4570;BME280;2297;51.442;6.996;2023-11-21T00:08:15;99724.56;;;11.48;55.68
4570;BME280;2297;51.442;6.996;2023-11-21T00:10:42;99722.72;;;11.51;55.82
4570;BME280;2297;51.442;6.996;2023-11-21T00:13:09;99729.66;;;11.55;55.70
4570;BME280;2297;51.442;6.996;2023-11-21T00:15:39;99731.59;;;11.50;56.15
4570;BME280;2297;51.442;6.996;2023-11-21T00:18:06;99736.00;;;11.49;55.91
4570;BME280;2297;51.442;6.996;2023-11-21T00:20:32;99725.47;;;11.47;56.33
4570;BME280;2297;51.442;6.996;2023-11-21T00:22:59;99729.66;;;11.55;56.13
4570;BME280;2297;51.442;6.996;2023-11-21T00:25:27;99733.22;;;11.54;56.13
4570;BME280;2297;51.442;6.996;2023-11-21T00:27:54;99739.34;;;11.54;56.18
4570;BME280;2297;51.442;6.996;2023-11-21T00:30:20;99740.97;;;11.58;56.15
4570;BME280;2297;51.442;6.996;2023-11-21T00:32:49;99746.31;;;11.57;56.02
4570;BME280;2297;51.442;6.996;2023-11-21T00:35:15;99749.06;;;11.54;56.27
4570;BME280;2297;51.442;6.996;2023-11-21T00:37:42;99749.94;;;11.54;56.40
4570;BME280;2297;51.442;6.996;2023-11-21T00:40:10;99756.28;;;11.48;56.40
4570;BME280;2297;51.442;6.996;2023-11-21T00:42:37;99745.59;;;11.52;56.21
4570;BME280;2297;51.442;6.996;2023-11-21T00:45:05;99752.50;;;11.57;56.26
4570;BME280;2297;51.442;6.996;2023-11-21T00:47:32;99749.06;;;11.54;56.34
4570;BME280;2297;51.442;6.996;2023-11-21T00:50:00;99748.97;;;11.57;56.10
4570;BME280;2297;51.442;6.996;2023-11-21T00:52:27;99747.22;;;11.56;56.08
4570;BME280;2297;51.442;6.996;2023-11-21T00:54:53;99745.91;;;11.42;56.36
4570;BME280;2297;51.442;6.996;2023-11-21T00:57:20;99744.19;;;11.41;56.83
4570;BME280;2297;51.442;6.996;2023-11-21T01:00:18;99743.28;;;11.42;56.73
4570;BME280;2297;51.442;6.996;2023-11-21T01:02:44;99741.50;;;11.43;56.53
4570;BME280;2297;51.442;6.996;2023-11-21T01:05:13;99743.19;;;11.45;56.78
4570;BME280;2297;51.442;6.996;2023-11-21T01:07:39;99749.06;;;11.54;56.35
4570;BME280;2297;51.442;6.996;2023-11-21T01:10:26;99748.00;;;11.59;56.26
4570;BME280;2297;51.442;6.996;2023-11-21T01:12:52;99747.22;;;11.56;56.12
4570;BME280;2297;51.442;6.996;2023-11-21T01:15:19;99747.19;;;11.57;56.25
4570;BME280;2297;51.442;6.996;2023-11-21T01:17:46;99750.50;;;11.64;56.18
4570;BME280;2297;51.442;6.996;2023-11-21T01:20:14;99761.06;;;11.64;55.93
4570;BME280;2297;51.442;6.996;2023-11-21T01:22:42;99764.50;;;11.66;56.00
4570;BME280;2297;51.442;6.996;2023-11-21T01:25:10;99761.06;;;11.64;56.22
4570;BME280;2297;51.442;6.996;2023-11-21T01:27:36;99758.47;;;11.62;55.86
4570;BME280;2297;51.442;6.996;2023-11-21T01:30:03;99766.38;;;11.64;55.97
4570;BME280;2297;51.442;6.996;2023-11-21T01:32:32;99765.47;;;11.63;56.29
4570;BME280;2297;51.442;6.996;2023-11-21T01:35:00;99763.72;;;11.64;56.02
4570;BME280;2297;51.442;6.996;2023-11-21T01:37:28;99764.41;;;11.69;55.89
4570;BME280;2297;51.442;6.996;2023-11-21T01:39:55;99766.97;;;11.72;55.68
4570;BME280;2297;51.442;6.996;2023-11-21T01:42:22;99771.38;;;11.72;55.52
4570;BME280;2297;51.442;6.996;2023-11-21T01:44:49;99772.91;;;11.79;55.47
4570;BME280;2297;51.442;6.996;2023-11-21T01:47:16;99773.03;;;11.76;55.12
4570;BME280;2297;51.442;6.996;2023-11-21T01:49:44;99778.34;;;11.74;55.09
4570;BME280;2297;51.442;6.996;2023-11-21T01:52:11;99778.41;;;11.73;55.16
4570;BME280;2297;51.442;6.996;2023-11-21T01:54:41;99773.88;;;11.76;55.16
4570;BME280;2297;51.442;6.996;2023-11-21T01:57:07;99772.25;;;11.72;55.02
4570;BME280;2297;51.442;6.996;2023-11-21T01:59:36;99780.06;;;11.75;55.20
4570;BME280;2297;51.442;6.996;2023-11-21T02:02:03;99783.53;;;11.77;55.44
4570;BME280;2297;51.442;6.996;2023-11-21T02:04:31;99781.03;;;11.73;55.26
4570;BME280;2297;51.442;6.996;2023-11-21T02:06:58;99781.09;;;11.71;55.51
4570;BME280;2297;51.442;6.996;2023-11-21T02:09:26;99780.19;;;11.72;55.33
4570;BME280;2297;51.442;6.996;2023-11-21T02:11:54;99783.53;;;11.77;55.20
4570;BME280;2297;51.442;6.996;2023-11-21T02:14:21;99783.53;;;11.77;55.14
4570;BME280;2297;51.442;6.996;2023-11-21T02:16:47;99789.81;;;11.75;55.09
4570;BME280;2297;51.442;6.996;2023-11-21T02:19:18;99788.19;;;11.71;54.99
4570;BME280;2297;51.442;6.996;2023-11-21T02:21:45;99790.00;;;11.69;55.27
4570;BME280;2297;51.442;6.996;2023-11-21T02:24:14;99793.56;;;11.68;55.16
4570;BME280;2297;51.442;6.996;2023-11-21T02:26:42;99794.44;;;11.68;55.03
4570;BME280;2297;51.442;6.996;2023-11-21T02:29:09;99797.44;;;11.57;55.21
4570;BME280;2297;51.442;6.996;2023-11-21T02:31:37;99800.13;;;11.56;55.48
4570;BME280;2297;51.442;6.996;2023-11-21T02:34:13;99808.94;;;11.56;55.49
4570;BME280;2297;51.442;6.996;2023-11-21T02:36:39;99806.19;;;11.59;55.62
4570;BME280;2297;51.442;6.996;2023-11-21T02:39:08;99807.97;;;11.59;55.38
4570;BME280;2297;51.442;6.996;2023-11-21T02:41:36;99802.94;;;11.51;55.32
4570;BME280;2297;51.442;6.996;2023-11-21T02:44:03;99809.19;;;11.48;55.12
4570;BME280;2297;51.442;6.996;2023-11-21T02:46:31;99809.00;;;11.55;54.70
4570;BME280;2297;51.442;6.996;2023-11-21T02:48:59;99811.53;;;11.58;55.15
4570;BME280;2297;51.442;6.996;2023-11-21T02:51:31;99806.94;;;11.63;54.63
4570;BME280;2297;51.442;6.996;2023-11-21T02:53:58;99817.53;;;11.63;54.53
4570;BME280;2297;51.442;6.996;2023-11-21T02:56:28;99816.66;;;11.62;54.35
4570;BME280;2297;51.442;6.996;2023-11-21T02:58:56;99815.69;;;11.65;54.48
4570;BME280;2297;51.442;6.996;2023-11-21T03:01:23;99825.41;;;11.64;54.72
4570;BME280;2297;51.442;6.996;2023-11-21T03:03:50;99824.31;;;11.70;54.36
4570;BME280;2297;51.442;6.996;2023-11-21T03:06:17;99821.84;;;11.66;54.79
4570;BME280;2297;51.442;6.996;2023-11-21T03:08:44;99827.09;;;11.67;54.50
4570;BME280;2297;51.442;6.996;2023-11-21T03:11:11;99829.78;;;11.66;54.30
4570;BME280;2297;51.442;6.996;2023-11-21T03:13:58;99828.09;;;11.63;54.02
4570;BME280;2297;51.442;6.996;2023-11-21T03:16:24;99832.50;;;11.64;54.14
4570;BME280;2297;51.442;6.996;2023-11-21T03:18:51;99826.13;;;11.70;54.08
4570;BME280;2297;51.442;6.996;2023-11-21T03:21:18;99826.97;;;11.70;53.89
4570;BME280;2297;51.442;6.996;2023-11-21T03:23:45;99824.31;;;11.70;53.84
4570;BME280;2297;51.442;6.996;2023-11-21T03:26:12;99826.38;;;11.62;53.85
4570;BME280;2297;51.442;6.996;2023-11-21T03:28:39;99832.50;;;11.62;54.06
4570;BME280;2297;51.442;6.996;2023-11-21T03:31:07;99834.25;;;11.63;53.87
4570;BME280;2297;51.442;6.996;2023-11-21T03:33:34;99835.03;;;11.67;53.95
4570;BME280;2297;51.442;6.996;2023-11-21T03:36:01;99846.75;;;11.58;53.73
4570;BME280;2297;51.442;6.996;2023-11-21T03:38:29;99851.31;;;11.55;54.03
4570;BME280;2297;51.442;6.996;2023-11-21T03:40:55;99856.47;;;11.58;54.22
4570;BME280;2297;51.442;6.996;2023-11-21T03:43:22;99861.88;;;11.55;53.99
4570;BME280;2297;51.442;6.996;2023-11-21T03:45:50;99867.06;;;11.58;53.96
4570;BME280;2297;51.442;6.996;2023-11-21T03:48:17;99869.53;;;11.62;53.75
4570;BME280;2297;51.442;6.996;2023-11-21T03:50:45;99867.06;;;11.58;53.82
4570;BME280;2297;51.442;6.996;2023-11-21T03:53:12;99869.69;;;11.58;53.85
4570;BME280;2297;51.442;6.996;2023-11-21T03:55:39;99866.22;;;11.57;53.90
4570;BME280;2297;51.442;6.996;2023-11-21T03:58:05;99877.44;;;11.64;53.61
4570;BME280;2297;51.442;6.996;2023-11-21T04:00:32;99878.53;;;11.57;53.74
4570;BME280;2297;51.442;6.996;2023-11-21T04:02:59;99879.31;;;11.60;53.50
4570;BME280;2297;51.442;6.996;2023-11-21T04:05:27;99872.16;;;11.64;53.94
4570;BME280;2297;51.442;6.996;2023-11-21T04:07:56;99879.25;;;11.62;53.70
4570;BME280;2297;51.442;6.996;2023-11-21T04:13:42;99878.41;;;11.61;53.61
4570;BME280;2297;51.442;6.996;2023-11-21T04:16:09;99879.16;;;11.65;53.62
4570;BME280;2297;51.442;6.996;2023-11-21T04:18:36;99878.31;;;11.64;53.81
4570;BME280;2297;51.442;6.996;2023-11-21T04:21:05;99885.41;;;11.62;53.76
4570;BME280;2297;51.442;6.996;2023-11-21T04:23:33;99881.09;;;11.60;53.94
4570;BME280;2297;51.442;6.996;2023-11-21T04:26:00;99891.66;;;11.60;53.80
4570;BME280;2297;51.442;6.996;2023-11-21T04:28:27;99889.22;;;11.54;53.83
4570;BME280;2297;51.442;6.996;2023-11-21T04:30:53;99880.53;;;11.50;54.19
4570;BME280;2297;51.442;6.996;2023-11-21T04:33:20;99885.75;;;11.52;54.08
4570;BME280;2297;51.442;6.996;2023-11-21T04:35:47;99889.22;;;11.54;54.19
4570;BME280;2297;51.442;6.996;2023-11-21T04:38:16;99897.22;;;11.52;54.04
4570;BME280;2297;51.442;6.996;2023-11-21T04:40:42;99892.84;;;11.51;54.32
4570;BME280;2297;51.442;6.996;2023-11-21T04:43:09;99896.38;;;11.50;54.38
4570;BME280;2297;51.442;6.996;2023-11-21T04:45:35;99888.50;;;11.48;54.35
4570;BME280;2297;51.442;6.996;2023-11-21T04:48:02;99895.44;;;11.53;54.02
4570;BME280;2297;51.442;6.996;2023-11-21T04:50:29;99893.69;;;11.52;54.34
4570;BME280;2297;51.442;6.996;2023-11-21T04:52:56;99898.25;;;11.46;54.37
4570;BME280;2297;51.442;6.996;2023-11-21T04:55:24;99900.00;;;11.47;54.65
4570;BME280;2297;51.442;6.996;2023-11-21T04:57:53;99900.72;;;11.53;54.62
4570;BME280;2297;51.442;6.996;2023-11-21T05:00:20;99907.75;;;11.54;54.50
4570;BME280;2297;51.442;6.996;2023-11-21T05:02:47;99914.94;;;11.48;54.59
4570;BME280;2297;51.442;6.996;2023-11-21T05:05:13;99914.09;;;11.48;54.76
4570;BME280;2297;51.442;6.996;2023-11-21T05:07:40;99908.03;;;11.44;54.71
4570;BME280;2297;51.442;6.996;2023-11-21T05:10:08;99916.88;;;11.43;54.78
4570;BME280;2297;51.442;6.996;2023-11-21T05:12:39;99911.69;;;11.40;55.22
4570;BME280;2297;51.442;6.996;2023-11-21T05:15:07;99917.16;;;11.34;55.32
4570;BME280;2297;51.442;6.996;2023-11-21T05:17:36;99919.66;;;11.39;55.23
4570;BME280;2297;51.442;6.996;2023-11-21T05:20:04;99921.25;;;11.44;55.02
4570;BME280;2297;51.442;6.996;2023-11-21T05:22:34;99921.31;;;11.43;55.02
4570;BME280;2297;51.442;6.996;2023-11-21T05:25:01;99929.19;;;11.44;55.35
4570;BME280;2297;51.442;6.996;2023-11-21T05:27:28;99927.44;;;11.43;55.03
4570;BME280;2297;51.442;6.996;2023-11-21T05:29:56;99934.38;;;11.47;55.12
4570;BME280;2297;51.442;6.996;2023-11-21T05:32:23;99935.38;;;11.43;55.40
4570;BME280;2297;51.442;6.996;2023-11-21T05:34:50;99943.19;;;11.46;55.24
4570;BME280;2297;51.442;6.996;2023-11-21T05:37:16;99953.88;;;11.43;55.41
4570;BME280;2297;51.442;6.996;2023-11-21T05:39:46;99952.25;;;11.39;55.56
4570;BME280;2297;51.442;6.996;2023-11-21T05:42:12;99947.06;;;11.36;55.52
4570;BME280;2297;51.442;6.996;2023-11-21T05:44:41;99953.22;;;11.37;55.94
4570;BME280;2297;51.442;6.996;2023-11-21T05:47:09;99961.09;;;11.38;55.72
4570;BME280;2297;51.442;6.996;2023-11-21T05:49:36;99956.69;;;11.39;55.92
4570;BME280;2297;51.442;6.996;2023-11-21T05:52:03;99957.63;;;11.36;55.86
4570;BME280;2297;51.442;6.996;2023-11-21T05:54:30;99969.91;;;11.37;55.81
4570;BME280;2297;51.442;6.996;2023-11-21T05:56:57;99967.25;;;11.39;56.03
4570;BME280;2297;51.442;6.996;2023-11-21T05:59:25;99967.94;;;11.45;55.85
4570;BME280;2297;51.442;6.996;2023-11-21T06:01:51;99977.72;;;11.42;56.03
4570;BME280;2297;51.442;6.996;2023-11-21T06:04:20;99976.03;;;11.39;55.91
4570;BME280;2297;51.442;6.996;2023-11-21T06:06:50;99984.72;;;11.44;56.11
4570;BME280;2297;51.442;6.996;2023-11-21T06:09:16;99982.06;;;11.44;56.13
4570;BME280;2297;51.442;6.996;2023-11-21T06:11:43;99984.81;;;11.40;56.19
4570;BME280;2297;51.442;6.996;2023-11-21T06:14:10;99992.81;;;11.38;56.29
4570;BME280;2297;51.442;6.996;2023-11-21T06:16:36;99992.03;;;11.35;56.61
4570;BME280;2297;51.442;6.996;2023-11-21T06:19:03;99999.94;;;11.36;56.50
4570;BME280;2297;51.442;6.996;2023-11-21T06:21:32;99997.41;;;11.31;56.41
4570;BME280;2297;51.442;6.996;2023-11-21T06:23:59;100006.94;;;11.37;56.35
4570;BME280;2297;51.442;6.996;2023-11-21T06:26:27;100012.31;;;11.34;56.60
4570;BME280;2297;51.442;6.996;2023-11-21T06:31:58;100017.78;;;11.28;56.80
4570;BME280;2297;51.442;6.996;2023-11-21T06:34:24;100022.22;;;11.27;56.67
4570;BME280;2297;51.442;6.996;2023-11-21T06:36:54;100021.31;;;11.28;57.50
4570;BME280;2297;51.442;6.996;2023-11-21T06:39:21;100022.41;;;11.20;57.64
4570;BME280;2297;51.442;6.996;2023-11-21T06:41:48;100031.28;;;11.17;57.67
4570;BME280;2297;51.442;6.996;2023-11-21T06:44:15;100031.94;;;11.27;57.41
4570;BME280;2297;51.442;6.996;2023-11-21T06:46:42;100037.13;;;11.30;57.49
4570;BME280;2297;51.442;6.996;2023-11-21T06:49:08;100038.03;;;11.29;57.66
4570;BME280;2297;51.442;6.996;2023-11-21T06:51:36;100040.13;;;11.18;57.67
4570;BME280;2297;51.442;6.996;2023-11-21T06:54:05;100043.50;;;11.21;57.93
4570;BME280;2297;51.442;6.996;2023-11-21T06:56:32;100051.50;;;11.20;57.82
4570;BME280;2297;51.442;6.996;2023-11-21T06:58:59;100048.81;;;11.21;57.89
4570;BME280;2297;51.442;6.996;2023-11-21T07:01:26;100067.19;;;11.26;58.14
4570;BME280;2297;51.442;6.996;2023-11-21T07:03:52;100062.72;;;11.28;57.92
4570;BME280;2297;51.442;6.996;2023-11-21T07:06:19;100070.88;;;11.20;57.94
4570;BME280;2297;51.442;6.996;2023-11-21T07:08:45;100076.06;;;11.23;57.96
4570;BME280;2297;51.442;6.996;2023-11-21T07:11:13;100080.00;;;11.07;57.94
4570;BME280;2297;51.442;6.996;2023-11-21T07:13:40;100085.03;;;11.18;58.12
4570;BME280;2297;51.442;6.996;2023-11-21T07:16:07;100081.69;;;11.09;59.13
4570;BME280;2297;51.442;6.996;2023-11-21T07:18:35;100092.84;;;11.22;58.71
4570;BME280;2297;51.442;6.996;2023-11-21T07:21:02;100086.69;;;11.22;58.37
4570;BME280;2297;51.442;6.996;2023-11-21T07:23:29;100083.22;;;11.20;58.30
4570;BME280;2297;51.442;6.996;2023-11-21T07:25:55;100091.78;;;11.29;57.79
4570;BME280;2297;51.442;6.996;2023-11-21T07:28:24;100097.28;;;11.22;58.50
4570;BME280;2297;51.442;6.996;2023-11-21T07:30:51;100098.06;;;11.24;58.04
4570;BME280;2297;51.442;6.996;2023-11-21T07:33:18;100093.13;;;11.10;58.29
4570;BME280;2297;51.442;6.996;2023-11-21T07:35:45;100089.38;;;11.20;58.35
4570;BME280;2297;51.442;6.996;2023-11-21T07:38:14;100097.28;;;11.22;58.03
4570;BME280;2297;51.442;6.996;2023-11-21T07:40:41;100092.03;;;11.20;58.13
4570;BME280;2297;51.442;6.996;2023-11-21T07:43:08;100091.03;;;11.23;58.21
4570;BME280;2297;51.442;6.996;2023-11-21T07:45:37;100088.50;;;11.20;57.96
4570;BME280;2297;51.442;6.996;2023-11-21T07:48:04;100095.44;;;11.24;57.88
4570;BME280;2297;51.442;6.996;2023-11-21T07:50:32;100088.25;;;11.29;58.20
4570;BME280;2297;51.442;6.996;2023-11-21T07:52:58;100090.88;;;11.29;58.17
4570;BME280;2297;51.442;6.996;2023-11-21T07:55:25;100100.56;;;11.30;57.93
4570;BME280;2297;51.442;6.996;2023-11-21T07:57:52;100096.03;;;11.35;57.90
4570;BME280;2297;51.442;6.996;2023-11-21T08:00:19;100109.25;;;11.35;57.62
4570;BME280;2297;51.442;6.996;2023-11-21T08:02:47;100115.69;;;11.25;57.79
4570;BME280;2297;51.442;6.996;2023-11-21T08:05:14;100118.88;;;11.38;57.99
4570;BME280;2297;51.442;6.996;2023-11-21T08:07:41;100131.34;;;11.33;57.81
4570;BME280;2297;51.442;6.996;2023-11-21T08:10:08;100146.31;;;11.32;57.73
4570;BME280;2297;51.442;6.996;2023-11-21T08:12:36;100147.91;;;11.39;57.57
4570;BME280;2297;51.442;6.996;2023-11-21T08:15:04;100160.13;;;11.43;57.85
4570;BME280;2297;51.442;6.996;2023-11-21T08:17:31;100161.41;;;11.28;57.75
4570;BME280;2297;51.442;6.996;2023-11-21T08:19:59;100168.31;;;10.98;58.97
4570;BME280;2297;51.442;6.996;2023-11-21T08:22:32;100172.31;;;11.14;58.82
4570;BME280;2297;51.442;6.996;2023-11-21T08:24:59;100169.44;;;11.24;58.59
4570;BME280;2297;51.442;6.996;2023-11-21T08:27:26;100177.88;;;11.38;58.21
4570;BME280;2297;51.442;6.996;2023-11-21T08:29:52;100184.22;;;11.33;58.45
4570;BME280;2297;51.442;6.996;2023-11-21T08:32:20;100184.44;;;11.23;58.49
4570;BME280;2297;51.442;6.996;2023-11-21T08:34:46;100195.72;;;11.30;58.91
4570;BME280;2297;51.442;6.996;2023-11-21T08:37:17;100195.66;;;11.33;58.59
4570;BME280;2297;51.442;6.996;2023-11-21T08:39:44;100199.13;;;11.35;58.68
4570;BME280;2297;51.442;6.996;2023-11-21T08:42:10;100200.63;;;11.45;58.41
4570;BME280;2297;51.442;6.996;2023-11-21T08:44:37;100200.44;;;11.52;58.33
4570;BME280;2297;51.442;6.996;2023-11-21T08:47:05;100196.91;;;11.53;58.57
4570;BME280;2297;51.442;6.996;2023-11-21T08:49:31;100199.44;;;11.57;58.21
4570;BME280;2297;51.442;6.996;2023-11-21T08:51:58;100197.50;;;11.62;58.28
4570;BME280;2297;51.442;6.996;2023-11-21T08:54:26;100200.81;;;11.72;58.13
4570;BME280;2297;51.442;6.996;2023-11-21T08:56:54;100200.69;;;11.75;57.99
4570;BME280;2297;51.442;6.996;2023-11-21T08:59:23;100212.03;;;11.80;57.79
4570;BME280;2297;51.442;6.996;2023-11-21T09:01:49;100217.22;;;11.84;57.72
4570;BME280;2297;51.442;6.996;2023-11-21T09:04:16;100220.81;;;11.83;57.37
4570;BME280;2297;51.442;6.996;2023-11-21T09:06:43;100220.75;;;11.84;57.40
4570;BME280;2297;51.442;6.996;2023-11-21T09:09:10;100226.00;;;11.86;57.65
4570;BME280;2297;51.442;6.996;2023-11-21T09:11:38;100224.00;;;11.94;57.44
4570;BME280;2297;51.442;6.996;2023-11-21T09:14:04;100223.97;;;11.95;57.10
4570;BME280;2297;51.442;6.996;2023-11-21T09:16:31;100233.03;;;11.87;57.31
4570;BME280;2297;51.442;6.996;2023-11-21T09:18:58;100240.88;;;11.90;57.32
4570;BME280;2297;51.442;6.996;2023-11-21T09:21:25;100244.31;;;11.93;57.32
4570;BME280;2297;51.442;6.996;2023-11-21T09:23:52;100235.47;;;11.94;57.23
4570;BME280;2297;51.442;6.996;2023-11-21T09:26:19;100240.50;;;12.04;56.96
4570;BME280;2297;51.442;6.996;2023-11-21T09:28:47;100250.13;;;12.06;57.01
4570;BME280;2297;51.442;6.996;2023-11-21T09:31:14;100252.88;;;12.03;56.82
4570;BME280;2297;51.442;6.996;2023-11-21T09:33:42;100251.97;;;12.04;57.04
4570;BME280;2297;51.442;6.996;2023-11-21T09:36:11;100261.69;;;12.04;56.89
4570;BME280;2297;51.442;6.996;2023-11-21T09:38:38;100260.59;;;12.11;56.88
4570;BME280;2297;51.442;6.996;2023-11-21T09:41:11;100257.16;;;12.07;56.75
4570;BME280;2297;51.442;6.996;2023-11-21T09:43:43;100260.91;;;12.00;57.17
4570;BME280;2297;51.442;6.996;2023-11-21T09:46:13;100260.00;;;12.00;56.92
4570;BME280;2297;51.442;6.996;2023-11-21T09:51:55;100262.66;;;12.00;57.45
4570;BME280;2297;51.442;6.996;2023-11-21T09:54:22;100271.28;;;12.06;57.50
4570;BME280;2297;51.442;6.996;2023-11-21T09:56:49;100267.84;;;12.04;57.17
4570;BME280;2297;51.442;6.996;2023-11-21T09:59:16;100265.94;;;12.09;57.33
4570;BME280;2297;51.442;6.996;2023-11-21T10:01:45;100278.16;;;12.13;57.15
4570;BME280;2297;51.442;6.996;2023-11-21T10:04:13;100272.78;;;12.17;56.82
4570;BME280;2297;51.442;6.996;2023-11-21T10:06:41;100274.53;;;12.18;56.58
4570;BME280;2297;51.442;6.996;2023-11-21T10:09:09;100279.38;;;12.02;56.31
4570;BME280;2297;51.442;6.996;2023-11-21T10:11:40;100287.97;;;12.10;56.72
4570;BME280;2297;51.442;6.996;2023-11-21T10:14:08;100285.22;;;12.14;56.74
4570;BME280;2297;51.442;6.996;2023-11-21T10:16:38;100283.25;;;12.23;56.51
4570;BME280;2297;51.442;6.996;2023-11-21T10:19:08;100281.22;;;12.31;56.46
4570;BME280;2297;51.442;6.996;2023-11-21T10:21:36;100279.81;;;12.18;56.05
4570;BME280;2297;51.442;6.996;2023-11-21T10:24:25;100279.75;;;12.21;56.54
4570;BME280;2297;51.442;6.996;2023-11-21T10:26:52;100277.78;;;12.29;56.30
4570;BME280;2297;51.442;6.996;2023-11-21T10:29:19;100281.22;;;12.31;56.21
4570;BME280;2297;51.442;6.996;2023-11-21T10:31:49;100289.06;;;12.36;56.10
4570;BME280;2297;51.442;6.996;2023-11-21T10:34:18;100289.75;;;12.42;56.06
4570;BME280;2297;51.442;6.996;2023-11-21T10:40:07;100296.50;;;12.53;55.71
4570;BME280;2297;51.442;6.996;2023-11-21T10:42:34;100292.88;;;12.57;55.70
4570;BME280;2297;51.442;6.996;2023-11-21T10:45:01;100298.88;;;12.62;55.34
4570;BME280;2297;51.442;6.996;2023-11-21T10:47:28;100299.81;;;12.61;55.48
4570;BME280;2297;51.442;6.996;2023-11-21T10:49:56;100301.44;;;12.65;54.97
4570;BME280;2297;51.442;6.996;2023-11-21T10:52:26;100299.44;;;12.73;54.69
4570;BME280;2297;51.442;6.996;2023-11-21T10:54:53;100316.50;;;12.63;55.18
4570;BME280;2297;51.442;6.996;2023-11-21T10:57:20;100312.84;;;12.67;54.91
4570;BME280;2297;51.442;6.996;2023-11-21T10:59:49;100315.50;;;12.67;54.87
4570;BME280;2297;51.442;6.996;2023-11-21T11:02:23;100317.06;;;12.74;54.80
4570;BME280;2297;51.442;6.996;2023-11-21T11:04:52;100317.72;;;12.83;54.71
4570;BME280;2297;51.442;6.996;2023-11-21T11:07:21;100322.00;;;12.87;54.76
4570;BME280;2297;51.442;6.996;2023-11-21T11:09:48;100320.31;;;12.84;54.62
4570;BME280;2297;51.442;6.996;2023-11-21T11:12:15;100320.53;;;12.76;54.85
4570;BME280;2297;51.442;6.996;2023-11-21T11:14:43;100324.81;;;12.80;55.03
4570;BME280;2297;51.442;6.996;2023-11-21T11:17:10;100324.03;;;12.78;54.96
4570;BME280;2297;51.442;6.996;2023-11-21T11:19:37;100320.34;;;12.83;54.92
4570;BME280;2297;51.442;6.996;2023-11-21T11:22:12;100322.28;;;12.77;54.91
4570;BME280;2297;51.442;6.996;2023-11-21T11:24:55;100328.09;;;12.90;54.97
4570;BME280;2297;51.442;6.996;2023-11-21T11:27:34;100319.06;;;12.96;54.76
4570;BME280;2297;51.442;6.996;2023-11-21T11:30:14;100324.25;;;13.01;54.60
4570;BME280;2297;51.442;6.996;2023-11-21T11:32:50;100323.19;;;13.06;54.62
4570;BME280;2297;51.442;6.996;2023-11-21T11:35:26;100324.91;;;13.07;54.38
4570;BME280;2297;51.442;6.996;2023-11-21T11:37:57;100325.50;;;13.17;53.97
4570;BME280;2297;51.442;6.996;2023-11-21T11:40:38;100333.56;;;13.14;53.87
4570;BME280;2297;51.442;6.996;2023-11-21T11:43:06;100331.22;;;13.03;54.09
4570;BME280;2297;51.442;6.996;2023-11-21T11:45:45;100326.91;;;12.99;53.99
4570;BME280;2297;51.442;6.996;2023-11-21T11:48:16;100333.28;;;12.93;53.88
4570;BME280;2297;51.442;6.996;2023-11-21T11:51:01;100329.78;;;12.93;53.90
4570;BME280;2297;51.442;6.996;2023-11-21T11:53:35;100334.25;;;12.91;54.39
4570;BME280;2297;51.442;6.996;2023-11-21T11:56:28;100334.06;;;12.97;54.36
4570;BME280;2297;51.442;6.996;2023-11-21T11:58:58;100331.19;;;13.05;54.09
4570;BME280;2297;51.442;6.996;2023-11-21T12:01:27;100342.53;;;13.08;53.90
4570;BME280;2297;51.442;6.996;2023-11-21T12:04:25;100337.22;;;13.08;53.95
4570;BME280;2297;51.442;6.996;2023-11-21T12:07:04;100349.50;;;13.12;53.92
4570;BME280;2297;51.442;6.996;2023-11-21T12:09:32;100351.31;;;13.10;54.02
4570;BME280;2297;51.442;6.996;2023-11-21T12:12:02;100345.91;;;13.13;53.41
4570;BME280;2297;51.442;6.996;2023-11-21T12:14:28;100353.19;;;13.07;53.66
4570;BME280;2297;51.442;6.996;2023-11-21T12:16:57;100349.59;;;13.09;53.65
4570;BME280;2297;51.442;6.996;2023-11-21T12:19:25;100350.78;;;12.99;53.98
4570;BME280;2297;51.442;6.996;2023-11-21T12:21:51;100355.28;;;12.97;54.13
4570;BME280;2297;51.442;6.996;2023-11-21T12:24:18;100355.09;;;13.03;54.31
4570;BME280;2297;51.442;6.996;2023-11-21T12:26:45;100348.97;;;13.01;54.15
4570;BME280;2297;51.442;6.996;2023-11-21T12:29:13;100353.34;;;13.02;54.26
4570;BME280;2297;51.442;6.996;2023-11-21T12:31:39;100359.84;;;12.92;54.61
4570;BME280;2297;51.442;6.996;2023-11-21T12:34:06;100366.03;;;12.91;54.56
4570;BME280;2297;51.442;6.996;2023-11-21T12:36:37;100370.50;;;12.90;54.50
4570;BME280;2297;51.442;6.996;2023-11-21T12:39:03;100376.66;;;12.91;54.44
4570;BME280;2297;51.442;6.996;2023-11-21T12:41:30;100373.25;;;12.86;54.52
4570;BME280;2297;51.442;6.996;2023-11-21T12:43:57;100375.09;;;12.84;54.67
4570;BME280;2297;51.442;6.996;2023-11-21T12:46:25;100386.13;;;12.68;55.37
4570;BME280;2297;51.442;6.996;2023-11-21T12:48:56;100388.88;;;12.65;55.32
4570;BME280;2297;51.442;6.996;2023-11-21T12:51:23;100387.19;;;12.62;55.71
4570;BME280;2297;51.442;6.996;2023-11-21T12:53:50;100380.06;;;12.64;55.67
4570;BME280;2297;51.442;6.996;2023-11-21T12:56:18;100385.50;;;12.60;55.39
4570;BME280;2297;51.442;6.996;2023-11-21T12:58:48;100398.84;;;12.57;55.80
4570;BME280;2297;51.442;6.996;2023-11-21T13:01:17;100398.75;;;12.60;55.72
4570;BME280;2297;51.442;6.996;2023-11-21T13:03:47;100399.78;;;12.54;55.72
4570;BME280;2297;51.442;6.996;2023-11-21T13:06:17;100400.00;;;12.46;55.92
4570;BME280;2297;51.442;6.996;2023-11-21T13:08:44;100406.19;;;12.45;56.30
4570;BME280;2297;51.442;6.996;2023-11-21T13:11:12;100413.53;;;12.34;56.48
4570;BME280;2297;51.442;6.996;2023-11-21T13:13:41;100409.94;;;12.38;56.76
4570;BME280;2297;51.442;6.996;2023-11-21T13:16:08;100405.34;;;12.45;56.96
4570;BME280;2297;51.442;6.996;2023-11-21T13:18:35;100415.75;;;12.51;56.94
4570;BME280;2297;51.442;6.996;2023-11-21T13:21:04;100428.25;;;12.46;56.85
4570;BME280;2297;51.442;6.996;2023-11-21T13:23:35;100427.53;;;12.39;57.28
4570;BME280;2297;51.442;6.996;2023-11-21T13:26:03;100433.25;;;12.24;58.25
4570;BME280;2297;51.442;6.996;2023-11-21T13:28:30;100440.03;;;12.34;58.15
4570;BME280;2297;51.442;6.996;2023-11-21T13:30:57;100429.53;;;12.31;57.82
4570;BME280;2297;51.442;6.996;2023-11-21T13:33:28;100429.13;;;12.12;58.25